Time;durP1;ratioP1;P1;durP2;ratioP2;P2;SDS_P1;SDS_P2;PMS_P1;PMS_P2;Temp;Humidity;BMP_temperature;BMP_pressure;BME280_temperature;BME280_humidity;BME280_pressure;Samples;Min_cycle;Max_cycle;Signal;HPM_P1;HPM_P2
2023/04/21 00:00:54;;;;;;;;;;;;;;;;;;4724878;30;20030;-89
2023/04/21 00:03:21;;;;;;;;;;;;;;;;;;4708959;30;19938;-88
2023/04/21 00:05:47;;;;;;;;;;;;;;;;;;4717615;30;19934;-89
2023/04/21 00:08:13;;;;;;;;;;;;;;;;;;4723032;30;20004;-89
2023/04/21 00:10:39;;;;;;;;;;;;;;;;;;4709088;30;20012;-88
2023/04/21 00:13:05;;;;;;;;;;;;;;;;;;4722322;30;19934;-89
2023/04/21 00:15:31;;;;;;;;;;;;;;;;;;4700973;30;19941;-89
2023/04/21 00:17:57;;;;;;;;;;;;;;;;;;4716468;30;19934;-89
2023/04/21 00:20:25;;;;;;;;;;;;;;;;;;4724496;30;19926;-88
2023/04/21 00:22:51;;;;;;;;;;;;;;;;;;4709662;30;19930;-89
2023/04/21 00:25:17;;;;;;;;;;;;;;;;;;4703394;30;19926;-88
2023/04/21 00:27:43;;;;;;;;;;;;;;;;;;4723960;30;19941;-90
2023/04/21 00:30:09;;;;;;;;;;;;;;;;;;4718428;30;20284;-89
2023/04/21 00:32:35;;;;;;;;;;;;;;;;;;4709384;30;19981;-89
2023/04/21 00:35:01;;;;;;;;;;;;;;;;;;4701531;30;19934;-89
2023/04/21 00:37:27;;;;;;;;;;;;;;;;;;4728295;30;19930;-89
2023/04/21 00:39:53;;;;;;;;;;;;;;;;;;4721353;30;19930;-88
2023/04/21 00:42:19;;;;;;;;;;;;;;;;;;4728271;30;19948;-88
2023/04/21 00:44:45;;;;;;;;;;;;;;;;;;4712709;30;19930;-88
2023/04/21 00:47:11;;;;;;;;;;;;;;;;;;4698885;30;20004;-88
2023/04/21 00:49:37;;;;;;;;;;;;;;;;;;4727303;30;19938;-88
2023/04/21 00:52:03;;;;;;;;;;;;;;;;;;4717366;30;20511;-88
2023/04/21 00:54:29;;;;;;;;;;;;;;;;;;4725056;30;20322;-88
2023/04/21 00:56:57;;;;;;;;;;;;;;;;;;4717923;30;19930;-88
2023/04/21 00:59:23;;;;;;;;;;;;;;;;;;4721060;30;20025;-88
2023/04/21 01:01:49;;;;;;;;;;;;;;;;;;4711587;30;20603;-88
2023/04/21 01:04:15;;;;;;;;;;;;;;;;;;4710760;30;19962;-88
2023/04/21 01:06:41;;;;;;;;;;;;;;;;;;4721129;30;20482;-87
2023/04/21 01:09:07;;;;;;;;;;;;;;;;;;4723795;30;19933;-88
2023/04/21 01:11:33;;;;;;;;;;;;;;;;;;4713930;30;19934;-88
2023/04/21 01:13:59;;;;;;;;;;;;;;;;;;4722192;30;19934;-88
2023/04/21 01:16:25;;;;;;;;;;;;;;;;;;4711022;30;21125;-88
2023/04/21 01:18:52;;;;;;;;;;;;;;;;;;4722924;30;19933;-88
2023/04/21 01:21:18;;;;;;;;;;;;;;;;;;4714736;30;19934;-88
2023/04/21 01:23:44;;;;;;;;;;;;;;;;;;4723026;30;19930;-88
2023/04/21 01:26:10;;;;;;;;;;;;;;;;;;4719587;30;19935;-88
2023/04/21 01:28:36;;;;;;;;;;;;;;;;;;4719536;30;19930;-87
2023/04/21 01:31:02;;;;;;;;;;;;;;;;;;4722273;30;19937;-88
2023/04/21 01:33:28;;;;;;;;;;;;;;;;;;4712793;30;19930;-88
2023/04/21 01:35:54;;;;;;;;;;;;;;;;;;4708079;30;20064;-87
2023/04/21 01:38:20;;;;;;;;;;;;;;;;;;4712959;30;19941;-88
2023/04/21 01:40:46;;;;;;;;;;;;;;;;;;4729842;30;19926;-88
2023/04/21 01:43:12;;;;;;;;;;;;;;;;;;4725012;30;19987;-88
2023/04/21 01:45:38;;;;;;;;;;;;;;;;;;4709242;30;20017;-88
2023/04/21 01:48:04;;;;;;;;;;;;;;;;;;4722496;30;20383;-88
2023/04/21 01:50:30;;;;;;;;;;;;;;;;;;4729717;30;21438;-88
2023/04/21 01:52:56;;;;;;;;;;;;;;;;;;4720798;30;20024;-87
2023/04/21 01:55:22;;;;;;;;;;;;;;;;;;4707710;30;19930;-88
2023/04/21 01:57:48;;;;;;;;;;;;;;;;;;4729631;30;19930;-88
2023/04/21 02:00:14;;;;;;;;;;;;;;;;;;4730795;30;21595;-88
2023/04/21 02:02:40;;;;;;;;;;;;;;;;;;4711425;30;20030;-88
2023/04/21 02:05:05;;;;;;;;;;;;;;;;;;4703138;30;20045;-87
2023/04/21 02:07:31;;;;;;;;;;;;;;;;;;4716453;30;19934;-88
2023/04/21 02:09:57;;;;;;;;;;;;;;;;;;4717998;30;19937;-88
2023/04/21 02:12:23;;;;;;;;;;;;;;;;;;4733076;30;19926;-88
2023/04/21 02:14:49;;;;;;;;;;;;;;;;;;4706682;30;19934;-88
2023/04/21 02:17:16;;;;;;;;;;;;;;;;;;4707005;30;19987;-88
2023/04/21 02:19:42;;;;;;;;;;;;;;;;;;4728642;30;19926;-87
2023/04/21 02:22:09;;;;;;;;;;;;;;;;;;4707015;30;20302;-88
2023/04/21 02:24:35;;;;;;;;;;;;;;;;;;4711686;30;20005;-88
2023/04/21 02:27:01;;;;;;;;;;;;;;;;;;4721273;30;20072;-89
2023/04/21 02:29:28;;;;;;;;;;;;;;;;;;4727389;30;22581;-89
2023/04/21 02:31:54;;;;;;;;;;;;;;;;;;4719778;30;19941;-88
2023/04/21 02:34:20;;;;;;;;;;;;;;;;;;4712588;30;19926;-88
2023/04/21 02:36:46;;;;;;;;;;;;;;;;;;4724856;30;21639;-89
2023/04/21 02:39:11;;;;;;;;;;;;;;;;;;4705386;30;20023;-88
2023/04/21 02:41:37;;;;;;;;;;;;;;;;;;4722754;30;19940;-88
2023/04/21 02:44:03;;;;;;;;;;;;;;;;;;4723759;30;20382;-89
2023/04/21 02:46:29;;;;;;;;;;;;;;;;;;4725424;30;20499;-88
2023/04/21 02:48:55;;;;;;;;;;;;;;;;;;4708179;30;19930;-88
2023/04/21 02:51:21;;;;;;;;;;;;;;;;;;4726437;30;19934;-88
2023/04/21 02:53:47;;;;;;;;;;;;;;;;;;4712316;30;19926;-88
2023/04/21 02:56:13;;;;;;;;;;;;;;;;;;4708435;30;19935;-89
2023/04/21 02:58:39;;;;;;;;;;;;;;;;;;4722667;30;20496;-88
2023/04/21 03:01:05;;;;;;;;;;;;;;;;;;4700672;30;22141;-88
2023/04/21 03:03:31;;;;;;;;;;;;;;;;;;4721020;30;20306;-88
2023/04/21 03:05:57;;;;;;;;;;;;;;;;;;4724227;30;19941;-88
2023/04/21 03:08:23;;;;;;;;;;;;;;;;;;4707360;30;19930;-88
2023/04/21 03:10:49;;;;;;;;;;;;;;;;;;4730965;30;20276;-88
2023/04/21 03:13:16;;;;;;;;;;;;;;;;;;4707301;30;19934;-88
2023/04/21 03:15:41;;;;;;;;;;;;;;;;;;4718529;30;19982;-88
2023/04/21 03:18:07;;;;;;;;;;;;;;;;;;4726924;30;20448;-88
2023/04/21 03:20:33;;;;;;;;;;;;;;;;;;4728326;30;19947;-89
2023/04/21 03:22:59;;;;;;;;;;;;;;;;;;4719173;30;19930;-88
2023/04/21 03:25:29;;;;;;;;;;;;;;;;;;4736143;30;19930;-88
2023/04/21 03:27:55;;;;;;;;;;;;;;;;;;4721244;30;19930;-88
2023/04/21 03:30:21;;;;;;;;;;;;;;;;;;4725215;30;19984;-88
2023/04/21 03:32:49;;;;;;;;;;;;;;;;;;4723170;30;20426;-88
2023/04/21 03:35:15;;;;;;;;;;;;;;;;;;4720554;30;19934;-88
2023/04/21 03:37:41;;;;;;;;;;;;;;;;;;4713962;30;20021;-88
2023/04/21 03:40:10;;;;;;;;;;;;;;;;;;4719864;30;20040;-89
2023/04/21 03:42:36;;;;;;;;;;;;;;;;;;4720315;30;19929;-88
2023/04/21 03:45:02;;;;;;;;;;;;;;;;;;4721358;30;20087;-88
2023/04/21 03:47:28;;;;;;;;;;;;;;;;;;4711716;30;19934;-88
2023/04/21 03:49:54;;;;;;;;;;;;;;;;;;4723617;30;19930;-88
2023/04/21 03:52:20;;;;;;;;;;;;;;;;;;4714535;30;20283;-88
2023/04/21 03:54:46;;;;;;;;;;;;;;;;;;4721763;30;20341;-88
2023/04/21 03:57:12;;;;;;;;;;;;;;;;;;4718065;30;19934;-88
2023/04/21 03:59:38;;;;;;;;;;;;;;;;;;4709610;30;19987;-88
2023/04/21 04:02:04;;;;;;;;;;;;;;;;;;4720785;30;19926;-88
2023/04/21 04:04:30;;;;;;;;;;;;;;;;;;4722570;30;20323;-88
2023/04/21 04:06:56;;;;;;;;;;;;;;;;;;4701754;30;19941;-88
2023/04/21 04:09:22;;;;;;;;;;;;;;;;;;4703093;30;20068;-88
2023/04/21 04:11:48;;;;;;;;;;;;;;;;;;4712862;30;20032;-88
2023/04/21 04:14:14;;;;;;;;;;;;;;;;;;4699582;30;19934;-88
2023/04/21 04:16:40;;;;;;;;;;;;;;;;;;4723114;30;20436;-88
2023/04/21 04:19:06;;;;;;;;;;;;;;;;;;4720926;30;19980;-88
2023/04/21 04:21:32;;;;;;;;;;;;;;;;;;4728339;30;19947;-87
2023/04/21 04:23:58;;;;;;;;;;;;;;;;;;4721005;30;20028;-88
2023/04/21 04:26:24;;;;;;;;;;;;;;;;;;4711309;30;19938;-88
2023/04/21 04:28:50;;;;;;;;;;;;;;;;;;4723944;30;19930;-88
2023/04/21 04:31:16;;;;;;;;;;;;;;;;;;4718588;30;20033;-88
2023/04/21 04:33:42;;;;;;;;;;;;;;;;;;4707365;30;20021;-88
2023/04/21 04:36:09;;;;;;;;;;;;;;;;;;4706247;30;19988;-88
2023/04/21 04:38:36;;;;;;;;;;;;;;;;;;4727502;30;19937;-89
2023/04/21 04:41:02;;;;;;;;;;;;;;;;;;4714757;30;19926;-88
2023/04/21 04:43:28;;;;;;;;;;;;;;;;;;4711930;30;19983;-88
2023/04/21 04:45:54;;;;;;;;;;;;;;;;;;4718365;30;19939;-87
2023/04/21 04:48:20;;;;;;;;;;;;;;;;;;4719701;30;19938;-89
2023/04/21 04:50:46;;;;;;;;;;;;;;;;;;4711352;30;19962;-88
2023/04/21 04:53:12;;;;;;;;;;;;;;;;;;4721637;30;20009;-88
2023/04/21 04:55:38;;;;;;;;;;;;;;;;;;4707850;30;19941;-88
2023/04/21 04:58:04;;;;;;;;;;;;;;;;;;4698352;30;19935;-88
2023/04/21 05:00:30;;;;;;;;;;;;;;;;;;4705372;30;19934;-88
2023/04/21 05:02:56;;;;;;;;;;;;;;;;;;4718010;30;20021;-88
2023/04/21 05:05:23;;;;;;;;;;;;;;;;;;4721736;30;20017;-89
2023/04/21 05:07:49;;;;;;;;;;;;;;;;;;4725775;30;19938;-88
2023/04/21 05:10:15;;;;;;;;;;;;;;;;;;4705043;30;20527;-88
2023/04/21 05:12:41;;;;;;;;;;;;;;;;;;4718494;30;19987;-88
2023/04/21 05:15:07;;;;;;;;;;;;;;;;;;4702071;30;19930;-89
2023/04/21 05:17:33;;;;;;;;;;;;;;;;;;4722553;30;19991;-89
2023/04/21 05:19:59;;;;;;;;;;;;;;;;;;4724481;30;20626;-88
2023/04/21 05:22:25;;;;;;;;;;;;;;;;;;4715418;30;19976;-88
2023/04/21 05:24:51;;;;;;;;;;;;;;;;;;4711925;30;19929;-88
2023/04/21 05:27:17;;;;;;;;;;;;;;;;;;4717438;30;19930;-88
2023/04/21 05:29:43;;;;;;;;;;;;;;;;;;4699356;30;19931;-87
2023/04/21 05:32:11;;;;;;;;;;;;;;;;;;4721305;30;19934;-87
2023/04/21 05:34:37;;;;;;;;;;;;;;;;;;4718863;30;20371;-88
2023/04/21 05:37:03;;;;;;;;;;;;;;;;;;4702095;30;19945;-87
2023/04/21 05:39:29;;;;;;;;;;;;;;;;;;4721083;30;19926;-88
2023/04/21 05:41:55;;;;;;;;;;;;;;;;;;4705574;30;20028;-88
2023/04/21 05:44:21;;;;;;;;;;;;;;;;;;4707635;30;20036;-88
2023/04/21 05:46:47;;;;;;;;;;;;;;;;;;4708104;30;19934;-87
2023/04/21 05:49:12;;;;;;;;;;;;;;;;;;4699359;30;20287;-87
2023/04/21 05:51:38;;;;;;;;;;;;;;;;;;4718109;30;20035;-88
2023/04/21 05:54:04;;;;;;;;;;;;;;;;;;4701110;30;19937;-88
2023/04/21 05:56:30;;;;;;;;;;;;;;;;;;4704911;30;19934;-88
2023/04/21 05:58:56;;;;;;;;;;;;;;;;;;4703957;30;20662;-87
2023/04/21 06:01:22;;;;;;;;;;;;;;;;;;4722128;30;19933;-87
2023/04/21 06:03:48;;;;;;;;;;;;;;;;;;4716721;30;19934;-87
2023/04/21 06:06:14;;;;;;;;;;;;;;;;;;4697603;30;20531;-88
2023/04/21 06:08:40;;;;;;;;;;;;;;;;;;4724409;30;19926;-88
2023/04/21 06:11:06;;;;;;;;;;;;;;;;;;4703061;30;19947;-88
2023/04/21 06:13:32;;;;;;;;;;;;;;;;;;4724067;30;19934;-88
2023/04/21 06:15:59;;;;;;;;;;;;;;;;;;4703222;30;20267;-87
2023/04/21 06:18:25;;;;;;;;;;;;;;;;;;4697567;30;20314;-88
2023/04/21 06:20:51;;;;;;;;;;;;;;;;;;4704685;30;19934;-88
2023/04/21 06:23:17;;;;;;;;;;;;;;;;;;4700438;30;19965;-88
2023/04/21 06:25:42;;;;;;;;;;;;;;;;;;4709911;30;20813;-87
2023/04/21 06:28:08;;;;;;;;;;;;;;;;;;4707433;30;19946;-87
2023/04/21 06:30:34;;;;;;;;;;;;;;;;;;4717475;30;19950;-87
2023/04/21 06:33:00;;;;;;;;;;;;;;;;;;4721957;30;19934;-89
2023/04/21 06:35:26;;;;;;;;;;;;;;;;;;4710353;30;19930;-88
2023/04/21 06:37:52;;;;;;;;;;;;;;;;;;4727184;30;19926;-88
2023/04/21 06:40:21;;;;;;;;;;;;;;;;;;4707264;30;19938;-88
2023/04/21 06:42:47;;;;;;;;;;;;;;;;;;4721194;30;19934;-88
2023/04/21 06:45:13;;;;;;;;;;;;;;;;;;4718092;30;20474;-87
2023/04/21 06:47:39;;;;;;;;;;;;;;;;;;4725337;30;20064;-87
2023/04/21 06:50:06;;;;;;;;;;;;;;;;;;4723460;30;20017;-88
2023/04/21 06:52:32;;;;;;;;;;;;;;;;;;4734655;30;19930;-88
2023/04/21 06:54:58;;;;;;;;;;;;;;;;;;4720534;30;19968;-87
2023/04/21 06:57:24;;;;;;;;;;;;;;;;;;4722533;30;19930;-88
2023/04/21 06:59:50;;;;;;;;;;;;;;;;;;4720354;30;19976;-88
2023/04/21 07:02:16;;;;;;;;;;;;;;;;;;4714534;30;19941;-88
2023/04/21 07:04:42;;;;;;;;;;;;;;;;;;4711671;30;19926;-88
2023/04/21 07:07:07;;;;;;;;;;;;;;;;;;4705355;30;19938;-87
2023/04/21 07:09:33;;;;;;;;;;;;;;;;;;4723119;30;20398;-88
2023/04/21 07:11:59;;;;;;;;;;;;;;;;;;4704052;30;19968;-87
2023/04/21 07:14:25;;;;;;;;;;;;;;;;;;4710819;30;20470;-88
2023/04/21 07:16:51;;;;;;;;;;;;;;;;;;4707653;30;20013;-87
2023/04/21 07:19:17;;;;;;;;;;;;;;;;;;4721673;30;20418;-87
2023/04/21 07:21:43;;;;;;;;;;;;;;;;;;4710208;30;19930;-87
2023/04/21 07:24:09;;;;;;;;;;;;;;;;;;4697934;30;19958;-88
2023/04/21 07:26:35;;;;;;;;;;;;;;;;;;4704402;30;19945;-88
2023/04/21 07:29:01;;;;;;;;;;;;;;;;;;4726075;30;19926;-88
2023/04/21 07:31:27;;;;;;;;;;;;;;;;;;4723300;30;20628;-87
2023/04/21 07:33:53;;;;;;;;;;;;;;;;;;4706955;30;20390;-88
2023/04/21 07:36:19;;;;;;;;;;;;;;;;;;4703939;30;19938;-87
2023/04/21 07:38:45;;;;;;;;;;;;;;;;;;4726969;30;20307;-87
2023/04/21 07:41:11;;;;;;;;;;;;;;;;;;4706209;30;19941;-87
2023/04/21 07:43:37;;;;;;;;;;;;;;;;;;4708645;30;20279;-87
2023/04/21 07:46:03;;;;;;;;;;;;;;;;;;4719716;30;19926;-87
2023/04/21 07:48:29;;;;;;;;;;;;;;;;;;4710062;30;19938;-88
2023/04/21 07:50:57;;;;;;;;;;;;;;;;;;4707000;30;20279;-88
2023/04/21 07:53:23;;;;;;;;;;;;;;;;;;4720809;30;20292;-88
2023/04/21 07:55:49;;;;;;;;;;;;;;;;;;4723065;30;20029;-87
2023/04/21 07:58:15;;;;;;;;;;;;;;;;;;4715697;30;22492;-87
2023/04/21 08:00:41;;;;;;;;;;;;;;;;;;4705232;30;19926;-87
2023/04/21 08:03:07;;;;;;;;;;;;;;;;;;4718594;30;20003;-88
2023/04/21 08:05:33;;;;;;;;;;;;;;;;;;4711048;30;19937;-88
2023/04/21 08:07:59;;;;;;;;;;;;;;;;;;4700296;30;19938;-87
2023/04/21 08:10:25;;;;;;;;;;;;;;;;;;4720549;30;19935;-88
2023/04/21 08:12:51;;;;;;;;;;;;;;;;;;4710010;30;19937;-88
2023/04/21 08:15:17;;;;;;;;;;;;;;;;;;4706676;30;20017;-88
2023/04/21 08:17:43;;;;;;;;;;;;;;;;;;4719957;30;19933;-88
2023/04/21 08:20:09;;;;;;;;;;;;;;;;;;4702847;30;19934;-88
2023/04/21 08:22:35;;;;;;;;;;;;;;;;;;4706214;30;19940;-87
2023/04/21 08:25:02;;;;;;;;;;;;;;;;;;4715885;30;19934;-87
2023/04/21 08:27:29;;;;;;;;;;;;;;;;;;4702567;30;19996;-88
2023/04/21 08:29:55;;;;;;;;;;;;;;;;;;4719719;30;19934;-87
2023/04/21 08:32:25;;;;;;;;;;;;;;;;;;4716601;30;20028;-88
2023/04/21 08:34:52;;;;;;;;;;;;;;;;;;4697407;30;19973;-88
2023/04/21 08:37:19;;;;;;;;;;;;;;;;;;4695542;30;19942;-88
2023/04/21 08:39:46;;;;;;;;;;;;;;;;;;4716564;30;20298;-88
2023/04/21 08:42:12;;;;;;;;;;;;;;;;;;4700391;30;19930;-90
2023/04/21 08:44:40;;;;;;;;;;;;;;;;;;4730659;30;20264;-90
2023/04/21 08:47:15;;;;;;;;;;;;;;;;;;4718099;30;20362;-88
2023/04/21 08:49:43;;;;;;;;;;;;;;;;;;4704079;30;19929;-88
2023/04/21 08:52:09;;;;;;;;;;;;;;;;;;4717761;30;19933;-89
2023/04/21 08:54:36;;;;;;;;;;;;;;;;;;4717718;30;19931;-89
2023/04/21 08:57:04;;;;;;;;;;;;;;;;;;4711918;30;19937;-89
2023/04/21 08:59:41;;;;;;;;;;;;;;;;;;4704274;30;20388;-89
2023/04/21 09:02:10;;;;;;;;;;;;;;;;;;4697509;30;19935;-89
2023/04/21 09:04:58;;;;;;;;;;;;;;;;;;4719918;30;19937;-91
2023/04/21 09:07:47;;;;;;;;;;;;;;;;;;4718796;30;19961;-89
2023/04/21 09:10:16;;;;;;;;;;;;;;;;;;4697961;30;19935;-88
2023/04/21 09:12:45;;;;;;;;;;;;;;;;;;4718693;30;19930;-87
2023/04/21 09:15:11;;;;;;;;;;;;;;;;;;4702458;30;20011;-87
2023/04/21 09:17:37;;;;;;;;;;;;;;;;;;4701870;30;20602;-87
2023/04/21 09:20:06;;;;;;;;;;;;;;;;;;4703281;30;19931;-87
2023/04/21 09:22:35;;;;;;;;;;;;;;;;;;4699149;30;19938;-88
2023/04/21 09:25:04;;;;;;;;;;;;;;;;;;4697459;30;19930;-87
2023/04/21 09:27:30;;;;;;;;;;;;;;;;;;4731891;30;19980;-88
2023/04/21 09:29:56;;;;;;;;;;;;;;;;;;4698623;30;19931;-87
2023/04/21 09:32:22;;;;;;;;;;;;;;;;;;4711341;30;19945;-87
2023/04/21 09:34:50;;;;;;;;;;;;;;;;;;4701525;30;19955;-87
2023/04/21 09:37:16;;;;;;;;;;;;;;;;;;4721327;30;19938;-87
2023/04/21 09:39:42;;;;;;;;;;;;;;;;;;4717367;30;19931;-87
2023/04/21 09:42:08;;;;;;;;;;;;;;;;;;4715558;30;20092;-86
2023/04/21 09:44:37;;;;;;;;;;;;;;;;;;4717941;30;19934;-87
2023/04/21 09:47:03;;;;;;;;;;;;;;;;;;4703549;30;20032;-87
2023/04/21 09:49:31;;;;;;;;;;;;;;;;;;4706477;30;19976;-87
2023/04/21 09:51:57;;;;;;;;;;;;;;;;;;4717405;30;19935;-87
2023/04/21 09:54:23;;;;;;;;;;;;;;;;;;4725215;30;20021;-87
2023/04/21 09:56:49;;;;;;;;;;;;;;;;;;4723308;30;19931;-87
2023/04/21 09:59:15;;;;;;;;;;;;;;;;;;4718641;30;20426;-88
2023/04/21 10:01:41;;;;;;;;;;;;;;;;;;4711143;30;20354;-88
2023/04/21 10:04:08;;;;;;;;;;;;;;;;;;4720838;30;19930;-88
2023/04/21 10:06:35;;;;;;;;;;;;;;;;;;4730139;30;20021;-88
2023/04/21 10:09:01;;;;;;;;;;;;;;;;;;4724404;30;20388;-87
2023/04/21 10:11:27;;;;;;;;;;;;;;;;;;4712868;30;20387;-88
2023/04/21 10:13:53;;;;;;;;;;;;;;;;;;4714122;30;19966;-87
2023/04/21 10:16:21;;;;;;;;;;;;;;;;;;4708426;30;19930;-88
2023/04/21 10:18:50;;;;;;;;;;;;;;;;;;4729910;30;20500;-87
2023/04/21 10:21:25;;;;;;;;;;;;;;;;;;4719965;30;19958;-87
2023/04/21 10:23:52;;;;;;;;;;;;;;;;;;4726098;30;19962;-87
2023/04/21 10:26:21;;;;;;;;;;;;;;;;;;4711677;30;19934;-87
2023/04/21 10:28:47;;;;;;;;;;;;;;;;;;4727748;30;19935;-88
2023/04/21 10:31:13;;;;;;;;;;;;;;;;;;4729475;30;21595;-88
2023/04/21 10:33:39;;;;;;;;;;;;;;;;;;4722865;30;19930;-88
2023/04/21 10:36:06;;;;;;;;;;;;;;;;;;4716202;30;19930;-87
2023/04/21 10:38:32;;;;;;;;;;;;;;;;;;4729438;30;19926;-88
2023/04/21 10:40:58;;;;;;;;;;;;;;;;;;4703690;30;19971;-88
2023/04/21 10:43:24;;;;;;;;;;;;;;;;;;4717526;30;20030;-88
2023/04/21 10:45:49;;;;;;;;;;;;;;;;;;4726979;30;19930;-88
2023/04/21 10:48:15;;;;;;;;;;;;;;;;;;4717885;30;19938;-88
2023/04/21 10:50:43;;;;;;;;;;;;;;;;;;4699594;30;19950;-88
2023/04/21 10:53:10;;;;;;;;;;;;;;;;;;4713261;30;20383;-88
2023/04/21 10:55:36;;;;;;;;;;;;;;;;;;4704886;30;20574;-88
2023/04/21 10:58:02;;;;;;;;;;;;;;;;;;4701815;30;19930;-87
2023/04/21 11:00:28;;;;;;;;;;;;;;;;;;4698899;30;19981;-88
2023/04/21 11:02:54;;;;;;;;;;;;;;;;;;4702672;30;20018;-90
2023/04/21 11:05:20;;;;;;;;;;;;;;;;;;4720751;30;20522;-88
2023/04/21 11:07:46;;;;;;;;;;;;;;;;;;4714919;30;19931;-87
2023/04/21 11:10:12;;;;;;;;;;;;;;;;;;4695612;30;19937;-88
2023/04/21 11:12:37;;;;;;;;;;;;;;;;;;4723637;30;19937;-88
2023/04/21 11:15:04;;;;;;;;;;;;;;;;;;4702342;30;20314;-88
2023/04/21 11:17:30;;;;;;;;;;;;;;;;;;4721555;30;19930;-88
2023/04/21 11:19:56;;;;;;;;;;;;;;;;;;4716231;30;19980;-88
2023/04/21 11:22:22;;;;;;;;;;;;;;;;;;4714223;30;19938;-88
2023/04/21 11:24:49;;;;;;;;;;;;;;;;;;4720259;30;19934;-88
2023/04/21 11:27:16;;;;;;;;;;;;;;;;;;4703494;30;20565;-87
2023/04/21 11:29:42;;;;;;;;;;;;;;;;;;4719072;30;20308;-88
2023/04/21 11:32:08;;;;;;;;;;;;;;;;;;4713371;30;19973;-88
2023/04/21 11:34:35;;;;;;;;;;;;;;;;;;4720396;30;20321;-88
2023/04/21 11:37:01;;;;;;;;;;;;;;;;;;4702060;30;20105;-88
2023/04/21 11:39:27;;;;;;;;;;;;;;;;;;4710206;30;20419;-88
2023/04/21 11:41:53;;;;;;;;;;;;;;;;;;4729851;30;20387;-87
2023/04/21 11:44:19;;;;;;;;;;;;;;;;;;4697692;30;20468;-88
2023/04/21 11:46:45;;;;;;;;;;;;;;;;;;4700856;30;19935;-87
2023/04/21 11:49:11;;;;;;;;;;;;;;;;;;4709690;30;19935;-88
2023/04/21 11:51:37;;;;;;;;;;;;;;;;;;4721207;30;19934;-88
2023/04/21 11:54:03;;;;;;;;;;;;;;;;;;4697999;30;19979;-82
2023/04/21 11:56:29;;;;;;;;;;;;;;;;;;4719447;30;20006;-82
2023/04/21 11:58:55;;;;;;;;;;;;;;;;;;4710070;30;19926;-82
2023/04/21 12:01:21;;;;;;;;;;;;;;;;;;4714986;30;20013;-82
2023/04/21 12:03:47;;;;;;;;;;;;;;;;;;4716479;30;19930;-82
2023/04/21 12:06:13;;;;;;;;;;;;;;;;;;4710814;30;19930;-82
2023/04/21 12:08:39;;;;;;;;;;;;;;;;;;4717130;30;19970;-82
2023/04/21 12:11:05;;;;;;;;;;;;;;;;;;4716051;30;20387;-94
2023/04/21 12:13:31;;;;;;;;;;;;;;;;;;4704692;30;19933;-92
2023/04/21 12:15:57;;;;;;;;;;;;;;;;;;4717683;30;19940;-92
2023/04/21 12:18:23;;;;;;;;;;;;;;;;;;4720876;30;19956;-90
2023/04/21 12:20:51;;;;;;;;;;;;;;;;;;4724327;30;19934;-94
2023/04/21 12:23:17;;;;;;;;;;;;;;;;;;4706686;30;20434;-83
2023/04/21 12:25:45;;;;;;;;;;;;;;;;;;4714837;30;19934;-82
2023/04/21 12:28:11;;;;;;;;;;;;;;;;;;4709678;30;19937;-83
2023/04/21 12:30:37;;;;;;;;;;;;;;;;;;4712450;30;20513;-82
2023/04/21 12:33:03;;;;;;;;;;;;;;;;;;4708358;30;19930;-82
2023/04/21 12:35:32;;;;;;;;;;;;;;;;;;4716883;30;19930;-82
2023/04/21 12:37:58;;;;;;;;;;;;;;;;;;4710204;30;19942;-82
2023/04/21 12:40:24;;;;;;;;;;;;;;;;;;4717669;30;19922;-82
2023/04/21 12:42:50;;;;;;;;;;;;;;;;;;4718453;30;19987;-82
2023/04/21 12:45:16;;;;;;;;;;;;;;;;;;4720064;30;20037;-83
2023/04/21 12:47:42;;;;;;;;;;;;;;;;;;4718148;30;19930;-83
2023/04/21 12:50:09;;;;;;;;;;;;;;;;;;4715237;30;20408;-83
2023/04/21 12:52:35;;;;;;;;;;;;;;;;;;4718876;30;19930;-83
2023/04/21 12:55:01;;;;;;;;;;;;;;;;;;4713008;30;19934;-84
2023/04/21 12:57:27;;;;;;;;;;;;;;;;;;4720192;30;20064;-83
2023/04/21 12:59:53;;;;;;;;;;;;;;;;;;4713842;30;20446;-82
2023/04/21 13:02:19;;;;;;;;;;;;;;;;;;4715993;30;20283;-84
2023/04/21 13:04:45;;;;;;;;;;;;;;;;;;4715514;30;19935;-90
2023/04/21 13:07:11;;;;;;;;;;;;;;;;;;4697909;30;19977;-89
2023/04/21 13:09:37;;;;;;;;;;;;;;;;;;4715807;30;19942;-89
2023/04/21 13:12:03;;;;;;;;;;;;;;;;;;4699031;30;20307;-89
2023/04/21 13:14:29;;;;;;;;;;;;;;;;;;4715451;30;20036;-88
2023/04/21 13:16:55;;;;;;;;;;;;;;;;;;4710412;30;19930;-88
2023/04/21 13:19:21;;;;;;;;;;;;;;;;;;4704218;30;19931;-89
2023/04/21 13:21:47;;;;;;;;;;;;;;;;;;4722653;30;19938;-90
2023/04/21 13:24:13;;;;;;;;;;;;;;;;;;4714356;30;19990;-89
2023/04/21 13:26:39;;;;;;;;;;;;;;;;;;4716406;30;20391;-88
2023/04/21 13:29:05;;;;;;;;;;;;;;;;;;4695570;30;19937;-88
2023/04/21 13:31:31;;;;;;;;;;;;;;;;;;4720440;30;19930;-88
2023/04/21 13:33:57;;;;;;;;;;;;;;;;;;4694177;30;19934;-88
2023/04/21 13:36:23;;;;;;;;;;;;;;;;;;4707308;30;20345;-89
2023/04/21 13:38:49;;;;;;;;;;;;;;;;;;4705537;30;20021;-88
2023/04/21 13:41:15;;;;;;;;;;;;;;;;;;4715625;30;20547;-88
2023/04/21 13:43:41;;;;;;;;;;;;;;;;;;4723878;30;19931;-88
2023/04/21 13:46:07;;;;;;;;;;;;;;;;;;4702718;30;20418;-88
2023/04/21 13:48:33;;;;;;;;;;;;;;;;;;4706701;30;19930;-88
2023/04/21 13:50:59;;;;;;;;;;;;;;;;;;4711816;30;19931;-88
2023/04/21 13:53:25;;;;;;;;;;;;;;;;;;4705261;30;19926;-88
2023/04/21 13:55:53;;;;;;;;;;;;;;;;;;4706491;30;19933;-88
2023/04/21 13:58:22;;;;;;;;;;;;;;;;;;4708913;30;20061;-89
2023/04/21 14:00:48;;;;;;;;;;;;;;;;;;4716934;30;20032;-88
2023/04/21 14:03:15;;;;;;;;;;;;;;;;;;4697042;30;19935;-88
2023/04/21 14:05:41;;;;;;;;;;;;;;;;;;4699705;30;19930;-88
2023/04/21 14:08:07;;;;;;;;;;;;;;;;;;4699001;30;19937;-87
2023/04/21 14:10:33;;;;;;;;;;;;;;;;;;4723076;30;19948;-88
2023/04/21 14:12:59;;;;;;;;;;;;;;;;;;4718113;30;19941;-88
2023/04/21 14:15:25;;;;;;;;;;;;;;;;;;4698408;30;19956;-88
2023/04/21 14:17:51;;;;;;;;;;;;;;;;;;4708369;30;20009;-88
2023/04/21 14:20:17;;;;;;;;;;;;;;;;;;4717360;30;20053;-88
2023/04/21 14:22:43;;;;;;;;;;;;;;;;;;4709306;30;19937;-88
2023/04/21 14:25:09;;;;;;;;;;;;;;;;;;4703890;30;19933;-89
2023/04/21 14:27:35;;;;;;;;;;;;;;;;;;4708684;30;20401;-88
2023/04/21 14:30:01;;;;;;;;;;;;;;;;;;4720481;30;19941;-88
2023/04/21 14:32:27;;;;;;;;;;;;;;;;;;4722350;30;20304;-88
2023/04/21 14:34:55;;;;;;;;;;;;;;;;;;4723004;30;19930;-88
2023/04/21 14:37:21;;;;;;;;;;;;;;;;;;4701933;30;19964;-88
2023/04/21 14:39:47;;;;;;;;;;;;;;;;;;4724032;30;19930;-88
2023/04/21 14:42:13;;;;;;;;;;;;;;;;;;4705068;30;20097;-88
2023/04/21 14:44:39;;;;;;;;;;;;;;;;;;4704179;30;19938;-88
2023/04/21 14:47:05;;;;;;;;;;;;;;;;;;4712959;30;20021;-89
2023/04/21 14:49:31;;;;;;;;;;;;;;;;;;4708804;30;19938;-89
2023/04/21 14:51:57;;;;;;;;;;;;;;;;;;4705081;30;19933;-88
2023/04/21 14:54:22;;;;;;;;;;;;;;;;;;4709951;30;20307;-89
2023/04/21 14:56:49;;;;;;;;;;;;;;;;;;4722425;30;19965;-88
2023/04/21 14:59:15;;;;;;;;;;;;;;;;;;4703985;30;19934;-89
2023/04/21 15:01:41;;;;;;;;;;;;;;;;;;4724555;30;19993;-88
2023/04/21 15:04:07;;;;;;;;;;;;;;;;;;4720732;30;19933;-89
2023/04/21 15:06:33;;;;;;;;;;;;;;;;;;4718725;30;19938;-88
2023/04/21 15:08:59;;;;;;;;;;;;;;;;;;4719562;30;19937;-88
2023/04/21 15:11:25;;;;;;;;;;;;;;;;;;4715538;30;19985;-87
2023/04/21 15:13:50;;;;;;;;;;;;;;;;;;4716742;30;19930;-89
2023/04/21 15:16:16;;;;;;;;;;;;;;;;;;4704279;30;19974;-88
2023/04/21 15:18:42;;;;;;;;;;;;;;;;;;4707287;30;19934;-88
2023/04/21 15:21:08;;;;;;;;;;;;;;;;;;4699339;30;20371;-88
2023/04/21 15:23:35;;;;;;;;;;;;;;;;;;4718940;30;20309;-88
2023/04/21 15:26:01;;;;;;;;;;;;;;;;;;4713613;30;19930;-88
2023/04/21 15:28:27;;;;;;;;;;;;;;;;;;4722603;30;20398;-88
2023/04/21 15:30:52;;;;;;;;;;;;;;;;;;4725739;30;19926;-88
2023/04/21 15:33:19;;;;;;;;;;;;;;;;;;4701844;30;19937;-88
2023/04/21 15:35:47;;;;;;;;;;;;;;;;;;4725569;30;20276;-88
2023/04/21 15:38:13;;;;;;;;;;;;;;;;;;4690858;30;20004;-88
2023/04/21 15:40:39;;;;;;;;;;;;;;;;;;4703142;30;19927;-88
2023/04/21 15:43:05;;;;;;;;;;;;;;;;;;4703364;30;20090;-88
2023/04/21 15:45:31;;;;;;;;;;;;;;;;;;4722992;30;19937;-88
2023/04/21 15:47:56;;;;;;;;;;;;;;;;;;4699480;30;19934;-88
2023/04/21 15:50:22;;;;;;;;;;;;;;;;;;4724365;30;19962;-88
2023/04/21 15:52:49;;;;;;;;;;;;;;;;;;4724452;30;19967;-88
2023/04/21 15:55:14;;;;;;;;;;;;;;;;;;4715685;30;20648;-88
2023/04/21 15:57:40;;;;;;;;;;;;;;;;;;4702805;30;19981;-88
2023/04/21 16:00:08;;;;;;;;;;;;;;;;;;4713452;30;20342;-88
2023/04/21 16:02:34;;;;;;;;;;;;;;;;;;4708204;30;20013;-88
2023/04/21 16:05:00;;;;;;;;;;;;;;;;;;4716208;30;20061;-88
2023/04/21 16:07:26;;;;;;;;;;;;;;;;;;4703112;30;19934;-88
2023/04/21 16:09:52;;;;;;;;;;;;;;;;;;4704947;30;19926;-88
2023/04/21 16:12:18;;;;;;;;;;;;;;;;;;4718610;30;20298;-88
2023/04/21 16:14:45;;;;;;;;;;;;;;;;;;4722315;30;20013;-89
2023/04/21 16:17:11;;;;;;;;;;;;;;;;;;4717383;30;20688;-88
2023/04/21 16:19:41;;;;;;;;;;;;;;;;;;4716143;30;19934;-88
2023/04/21 16:22:07;;;;;;;;;;;;;;;;;;4703926;30;19980;-88
2023/04/21 16:24:33;;;;;;;;;;;;;;;;;;4720853;30;20303;-88
2023/04/21 16:26:59;;;;;;;;;;;;;;;;;;4700651;30;19957;-88
2023/04/21 16:29:25;;;;;;;;;;;;;;;;;;4703602;30;19984;-88
2023/04/21 16:31:51;;;;;;;;;;;;;;;;;;4713081;30;19934;-88
2023/04/21 16:34:17;;;;;;;;;;;;;;;;;;4716888;30;19942;-88
2023/04/21 16:36:43;;;;;;;;;;;;;;;;;;4722505;30;20465;-88
2023/04/21 16:39:09;;;;;;;;;;;;;;;;;;4715208;30;19927;-88